sensor_id;sensor_type;location;lat;lon;timestamp;pressure;altitude;pressure_sealevel;temperature;humidity
6449;BME280;3257;52.298;13.690;2022-12-11T00:01:23;78375.59;;;-144.77;79.47
6449;BME280;3257;52.298;13.690;2022-12-11T00:03:49;78343.78;;;-144.77;78.62
6449;BME280;3257;52.298;13.690;2022-12-11T00:06:18;78349.75;;;-144.77;78.36
6449;BME280;3257;52.298;13.690;2022-12-11T00:08:45;78363.66;;;-144.77;78.91
6449;BME280;3257;52.298;13.690;2022-12-11T00:11:13;78353.72;;;-144.77;78.58
6449;BME280;3257;52.298;13.690;2022-12-11T00:13:41;78365.66;;;-144.77;78.99
6449;BME280;3257;52.298;13.690;2022-12-11T00:16:08;78353.72;;;-144.77;79.47
6449;BME280;3257;52.298;13.690;2022-12-11T00:18:35;78359.69;;;-144.77;78.85
6449;BME280;3257;52.298;13.690;2022-12-11T00:21:07;78367.63;;;-144.77;79.04
6449;BME280;3257;52.298;13.690;2022-12-11T00:23:34;78405.41;;;-144.77;78.42
6449;BME280;3257;52.298;13.690;2022-12-11T00:26:04;78373.59;;;-144.77;78.94
6449;BME280;3257;52.298;13.690;2022-12-11T00:28:32;78353.72;;;-144.77;78.40
6449;BME280;3257;52.298;13.690;2022-12-11T00:31:05;78397.47;;;-144.77;78.10
6449;BME280;3257;52.298;13.690;2022-12-11T00:33:33;78391.50;;;-144.77;78.94
6449;BME280;3257;52.298;13.690;2022-12-11T00:35:59;78405.41;;;-144.77;79.29
6449;BME280;3257;52.298;13.690;2022-12-11T00:38:26;78379.56;;;-144.77;78.46
6449;BME280;3257;52.298;13.690;2022-12-11T00:40:57;78351.72;;;-144.77;78.53
6449;BME280;3257;52.298;13.690;2022-12-11T00:43:23;78355.72;;;-144.77;78.54
6449;BME280;3257;52.298;13.690;2022-12-11T00:45:49;78339.81;;;-144.77;78.68
6449;BME280;3257;52.298;13.690;2022-12-11T00:48:16;78361.66;;;-144.77;79.49
6449;BME280;3257;52.298;13.690;2022-12-11T00:50:42;78375.59;;;-144.77;79.19
6449;BME280;3257;52.298;13.690;2022-12-11T00:53:09;78371.63;;;-144.77;79.66
6449;BME280;3257;52.298;13.690;2022-12-11T00:55:36;78367.63;;;-144.77;79.09
6449;BME280;3257;52.298;13.690;2022-12-11T00:58:04;78339.81;;;-144.77;78.16
6449;BME280;3257;52.298;13.690;2022-12-11T01:00:30;78321.91;;;-144.77;76.80
6449;BME280;3257;52.298;13.690;2022-12-11T01:02:57;78371.63;;;-144.77;77.74
6449;BME280;3257;52.298;13.690;2022-12-11T01:05:23;78361.66;;;-144.77;78.92
6449;BME280;3257;52.298;13.690;2022-12-11T01:07:50;78345.75;;;-144.77;79.00
6449;BME280;3257;52.298;13.690;2022-12-11T01:10:16;78329.84;;;-144.77;79.24
6449;BME280;3257;52.298;13.690;2022-12-11T01:15:17;78359.69;;;-144.77;78.37
6449;BME280;3257;52.298;13.690;2022-12-11T01:17:44;78369.63;;;-144.77;78.77
6449;BME280;3257;52.298;13.690;2022-12-11T01:20:11;78355.72;;;-144.77;78.90
6449;BME280;3257;52.298;13.690;2022-12-11T01:22:38;78327.88;;;-144.77;77.97
6449;BME280;3257;52.298;13.690;2022-12-11T01:25:05;78339.81;;;-144.77;78.93
6449;BME280;3257;52.298;13.690;2022-12-11T01:27:31;78353.72;;;-144.77;79.69
6449;BME280;3257;52.298;13.690;2022-12-11T01:29:57;78339.81;;;-144.77;79.32
6449;BME280;3257;52.298;13.690;2022-12-11T01:32:24;78353.72;;;-144.77;79.59
6449;BME280;3257;52.298;13.690;2022-12-11T01:34:50;78363.66;;;-144.77;79.97
6449;BME280;3257;52.298;13.690;2022-12-11T01:37:17;78335.81;;;-144.77;80.04
6449;BME280;3257;52.298;13.690;2022-12-11T01:39:43;78337.81;;;-144.77;79.32
6449;BME280;3257;52.298;13.690;2022-12-11T01:42:16;78355.72;;;-144.77;79.76
6449;BME280;3257;52.298;13.690;2022-12-11T01:47:09;78347.75;;;-144.77;79.74
6449;BME280;3257;52.298;13.690;2022-12-11T01:49:37;78363.66;;;-144.77;80.05
6449;BME280;3257;52.298;13.690;2022-12-11T01:52:07;78353.72;;;-144.77;80.33
6449;BME280;3257;52.298;13.690;2022-12-11T01:54:35;78357.69;;;-144.77;80.04
6449;BME280;3257;52.298;13.690;2022-12-11T01:57:05;78341.78;;;-144.77;79.60
6449;BME280;3257;52.298;13.690;2022-12-11T01:59:34;78335.81;;;-144.77;79.52
6449;BME280;3257;52.298;13.690;2022-12-11T02:02:12;78345.75;;;-144.77;79.62
6449;BME280;3257;52.298;13.690;2022-12-11T02:04:40;78363.66;;;-144.77;79.86
6449;BME280;3257;52.298;13.690;2022-12-11T02:07:08;78339.81;;;-144.77;79.47
6449;BME280;3257;52.298;13.690;2022-12-11T02:09:37;78327.88;;;-144.77;78.76
6449;BME280;3257;52.298;13.690;2022-12-11T02:12:30;78341.78;;;-144.77;79.67
6449;BME280;3257;52.298;13.690;2022-12-11T02:17:40;78367.63;;;-144.77;79.18
6449;BME280;3257;52.298;13.690;2022-12-11T02:20:15;78371.63;;;-144.77;79.95
6449;BME280;3257;52.298;13.690;2022-12-11T02:25:30;78339.81;;;-144.77;79.41
6449;BME280;3257;52.298;13.690;2022-12-11T02:28:29;78371.63;;;-144.77;80.01
6449;BME280;3257;52.298;13.690;2022-12-11T02:33:57;78367.63;;;-144.77;81.07
6449;BME280;3257;52.298;13.690;2022-12-11T02:36:28;78341.78;;;-144.77;81.08
6449;BME280;3257;52.298;13.690;2022-12-11T02:38:57;78331.84;;;-144.77;80.77
6449;BME280;3257;52.298;13.690;2022-12-11T02:41:26;78337.81;;;-144.77;80.74
6449;BME280;3257;52.298;13.690;2022-12-11T02:43:55;78325.88;;;-144.77;80.44
6449;BME280;3257;52.298;13.690;2022-12-11T02:46:23;78329.84;;;-144.77;80.17
6449;BME280;3257;52.298;13.690;2022-12-11T02:48:50;78359.69;;;-144.77;81.29
6449;BME280;3257;52.298;13.690;2022-12-11T02:51:21;78331.84;;;-144.77;81.89
6449;BME280;3257;52.298;13.690;2022-12-11T02:53:50;78298.06;;;-144.77;79.52
6449;BME280;3257;52.298;13.690;2022-12-11T02:56:28;78298.06;;;-144.77;78.36
6449;BME280;3257;52.298;13.690;2022-12-11T02:59:04;78306.00;;;-144.77;78.51
6449;BME280;3257;52.298;13.690;2022-12-11T03:01:32;78347.75;;;-144.77;79.50
6449;BME280;3257;52.298;13.690;2022-12-11T03:03:59;78375.59;;;-144.77;80.86
6449;BME280;3257;52.298;13.690;2022-12-11T03:06:31;78367.63;;;-144.77;81.22
6449;BME280;3257;52.298;13.690;2022-12-11T03:08:59;78365.66;;;-144.77;81.94
6449;BME280;3257;52.298;13.690;2022-12-11T03:11:26;78375.59;;;-144.77;82.17
6449;BME280;3257;52.298;13.690;2022-12-11T03:13:52;78377.56;;;-144.77;82.29
6449;BME280;3257;52.298;13.690;2022-12-11T03:16:34;78367.63;;;-144.77;82.14
6449;BME280;3257;52.298;13.690;2022-12-11T03:19:23;78375.59;;;-144.77;81.66
6449;BME280;3257;52.298;13.690;2022-12-11T03:21:57;78393.47;;;-144.77;82.01
6449;BME280;3257;52.298;13.690;2022-12-11T03:24:29;78395.47;;;-144.77;82.11
6449;BME280;3257;52.298;13.690;2022-12-11T03:27:32;78383.53;;;-144.77;82.87
6449;BME280;3257;52.298;13.690;2022-12-11T03:30:07;78405.41;;;-144.77;82.52
6449;BME280;3257;52.298;13.690;2022-12-11T03:32:39;78375.59;;;-144.77;81.57
6449;BME280;3257;52.298;13.690;2022-12-11T03:35:16;78373.59;;;-144.77;81.94
6449;BME280;3257;52.298;13.690;2022-12-11T03:37:47;78393.47;;;-144.77;81.37
6449;BME280;3257;52.298;13.690;2022-12-11T03:40:19;78403.44;;;-144.77;81.69
6449;BME280;3257;52.298;13.690;2022-12-11T03:42:50;78405.41;;;-144.77;82.05
6449;BME280;3257;52.298;13.690;2022-12-11T03:45:19;78405.41;;;-144.77;82.50
6449;BME280;3257;52.298;13.690;2022-12-11T03:47:48;78403.44;;;-144.77;82.67
6449;BME280;3257;52.298;13.690;2022-12-11T03:50:17;78387.53;;;-144.77;82.80
6449;BME280;3257;52.298;13.690;2022-12-11T03:52:45;78387.53;;;-144.77;82.74
6449;BME280;3257;52.298;13.690;2022-12-11T03:55:16;78383.53;;;-144.77;81.93
6449;BME280;3257;52.298;13.690;2022-12-11T03:57:42;78385.53;;;-144.77;81.77
6449;BME280;3257;52.298;13.690;2022-12-11T04:00:12;78403.44;;;-144.77;82.04
6449;BME280;3257;52.298;13.690;2022-12-11T04:02:41;78389.50;;;-144.77;81.49
6449;BME280;3257;52.298;13.690;2022-12-11T04:05:08;78417.34;;;-144.77;82.05
6449;BME280;3257;52.298;13.690;2022-12-11T04:07:35;78397.47;;;-144.77;82.18
6449;BME280;3257;52.298;13.690;2022-12-11T04:10:03;78407.41;;;-144.77;82.60
6449;BME280;3257;52.298;13.690;2022-12-11T04:12:30;78409.38;;;-144.77;82.72
6449;BME280;3257;52.298;13.690;2022-12-11T04:14:56;78413.38;;;-144.77;83.11
6449;BME280;3257;52.298;13.690;2022-12-11T04:49:45;78423.31;;;-144.77;82.37
6449;BME280;3257;52.298;13.690;2022-12-11T04:52:12;78427.28;;;-144.77;82.57
6449;BME280;3257;52.298;13.690;2022-12-11T04:54:38;78415.34;;;-144.77;82.55
6449;BME280;3257;52.298;13.690;2022-12-11T04:57:05;78425.28;;;-144.77;82.89
6449;BME280;3257;52.298;13.690;2022-12-11T04:59:32;78423.31;;;-144.77;82.35
6449;BME280;3257;52.298;13.690;2022-12-11T05:01:58;78411.38;;;-144.77;82.56
6449;BME280;3257;52.298;13.690;2022-12-11T05:04:25;78405.41;;;-144.77;82.87
6449;BME280;3257;52.298;13.690;2022-12-11T05:06:51;78403.44;;;-144.77;83.12
6449;BME280;3257;52.298;13.690;2022-12-11T05:09:17;78387.53;;;-144.77;82.28
6449;BME280;3257;52.298;13.690;2022-12-11T05:11:44;78379.56;;;-144.77;82.14
6449;BME280;3257;52.298;13.690;2022-12-11T05:14:11;78383.53;;;-144.77;82.64
6449;BME280;3257;52.298;13.690;2022-12-11T05:16:37;78383.53;;;-144.77;82.62
6449;BME280;3257;52.298;13.690;2022-12-11T05:19:03;78383.53;;;-144.77;82.66
6449;BME280;3257;52.298;13.690;2022-12-11T05:21:30;78379.56;;;-144.77;82.45
6449;BME280;3257;52.298;13.690;2022-12-11T05:24:00;78357.69;;;-144.77;82.00
6449;BME280;3257;52.298;13.690;2022-12-11T05:26:27;78379.56;;;-144.77;81.94
6449;BME280;3257;52.298;13.690;2022-12-11T05:28:54;78379.56;;;-144.77;82.33
6449;BME280;3257;52.298;13.690;2022-12-11T05:31:23;78373.59;;;-144.77;82.12
6449;BME280;3257;52.298;13.690;2022-12-11T05:33:51;78391.50;;;-144.77;82.32
6449;BME280;3257;52.298;13.690;2022-12-11T05:36:23;78383.53;;;-144.77;82.59
6449;BME280;3257;52.298;13.690;2022-12-11T05:38:51;78393.47;;;-144.77;82.77
6449;BME280;3257;52.298;13.690;2022-12-11T05:41:20;78405.41;;;-144.77;83.10
6449;BME280;3257;52.298;13.690;2022-12-11T05:43:47;78383.53;;;-144.77;83.14
6449;BME280;3257;52.298;13.690;2022-12-11T05:46:20;78399.44;;;-144.77;83.59
6449;BME280;3257;52.298;13.690;2022-12-11T05:48:49;78349.75;;;-144.77;82.92
6449;BME280;3257;52.298;13.690;2022-12-11T05:51:16;78383.53;;;-144.77;83.49
6449;BME280;3257;52.298;13.690;2022-12-11T05:53:44;78371.63;;;-144.77;83.50
6449;BME280;3257;52.298;13.690;2022-12-11T05:56:12;78381.56;;;-144.77;83.19
6449;BME280;3257;52.298;13.690;2022-12-11T05:58:40;78373.59;;;-144.77;82.90
6449;BME280;3257;52.298;13.690;2022-12-11T06:01:09;78373.59;;;-144.77;83.21
6449;BME280;3257;52.298;13.690;2022-12-11T06:03:36;78377.56;;;-144.77;82.99
6449;BME280;3257;52.298;13.690;2022-12-11T06:06:03;78367.63;;;-144.77;83.60
6449;BME280;3257;52.298;13.690;2022-12-11T06:08:31;78373.59;;;-144.77;83.34
6449;BME280;3257;52.298;13.690;2022-12-11T06:10:57;78369.63;;;-144.77;83.60
6449;BME280;3257;52.298;13.690;2022-12-11T06:13:25;78367.63;;;-144.77;83.57
6449;BME280;3257;52.298;13.690;2022-12-11T06:15:51;78371.63;;;-144.77;83.29
6449;BME280;3257;52.298;13.690;2022-12-11T06:18:18;78377.56;;;-144.77;82.25
6449;BME280;3257;52.298;13.690;2022-12-11T06:20:44;78375.59;;;-144.77;82.72
6449;BME280;3257;52.298;13.690;2022-12-11T06:23:11;78339.81;;;-144.77;82.22
6449;BME280;3257;52.298;13.690;2022-12-11T06:25:38;78329.84;;;-144.77;82.18
6449;BME280;3257;52.298;13.690;2022-12-11T06:28:05;78329.84;;;-144.77;82.37
6449;BME280;3257;52.298;13.690;2022-12-11T06:30:32;78339.81;;;-144.77;81.32
6449;BME280;3257;52.298;13.690;2022-12-11T06:33:04;78351.72;;;-144.77;80.29
6449;BME280;3257;52.298;13.690;2022-12-11T06:35:31;78343.78;;;-144.77;79.89
6449;BME280;3257;52.298;13.690;2022-12-11T06:38:03;78333.84;;;-144.77;79.51
6449;BME280;3257;52.298;13.690;2022-12-11T06:40:30;78341.78;;;-144.77;78.70
6449;BME280;3257;52.298;13.690;2022-12-11T06:42:56;78337.81;;;-144.77;79.65
6449;BME280;3257;52.298;13.690;2022-12-11T06:45:23;78367.63;;;-144.77;78.69
6449;BME280;3257;52.298;13.690;2022-12-11T06:47:49;78373.59;;;-144.77;78.92
6449;BME280;3257;52.298;13.690;2022-12-11T06:50:15;78369.63;;;-144.77;78.43
6449;BME280;3257;52.298;13.690;2022-12-11T06:52:42;78381.56;;;-144.77;79.01
6449;BME280;3257;52.298;13.690;2022-12-11T06:55:08;78373.59;;;-144.77;79.07
6449;BME280;3257;52.298;13.690;2022-12-11T06:57:35;78395.47;;;-144.77;77.92
6449;BME280;3257;52.298;13.690;2022-12-11T07:00:02;78387.53;;;-144.77;78.84
6449;BME280;3257;52.298;13.690;2022-12-11T07:02:29;78407.41;;;-144.77;77.58
6449;BME280;3257;52.298;13.690;2022-12-11T07:04:55;78411.38;;;-144.77;77.42
6449;BME280;3257;52.298;13.690;2022-12-11T07:07:22;78407.41;;;-144.77;77.26
6449;BME280;3257;52.298;13.690;2022-12-11T07:09:48;78393.47;;;-144.77;78.22
6449;BME280;3257;52.298;13.690;2022-12-11T07:12:15;78395.47;;;-144.77;78.19
6449;BME280;3257;52.298;13.690;2022-12-11T07:14:42;78385.53;;;-144.77;76.95
6449;BME280;3257;52.298;13.690;2022-12-11T07:17:09;78361.66;;;-144.77;77.69
6449;BME280;3257;52.298;13.690;2022-12-11T07:19:35;78367.63;;;-144.77;76.87
6449;BME280;3257;52.298;13.690;2022-12-11T07:22:01;78373.59;;;-144.77;76.89
6449;BME280;3257;52.298;13.690;2022-12-11T07:24:28;78371.63;;;-144.77;77.02
6449;BME280;3257;52.298;13.690;2022-12-11T07:26:54;78363.66;;;-144.77;77.11
6449;BME280;3257;52.298;13.690;2022-12-11T07:29:21;78377.56;;;-144.77;77.75
6449;BME280;3257;52.298;13.690;2022-12-11T07:31:47;78397.47;;;-144.77;76.02
6449;BME280;3257;52.298;13.690;2022-12-11T07:34:14;78397.47;;;-144.77;76.04
6449;BME280;3257;52.298;13.690;2022-12-11T07:36:40;78387.53;;;-144.77;77.37
6449;BME280;3257;52.298;13.690;2022-12-11T07:39:06;78371.63;;;-144.77;77.08
6449;BME280;3257;52.298;13.690;2022-12-11T07:41:34;78375.59;;;-144.77;77.32
6449;BME280;3257;52.298;13.690;2022-12-11T07:44:01;78393.47;;;-144.77;76.59
6449;BME280;3257;52.298;13.690;2022-12-11T07:46:29;78407.41;;;-144.77;76.80
6449;BME280;3257;52.298;13.690;2022-12-11T07:48:56;78399.44;;;-144.77;77.00
6449;BME280;3257;52.298;13.690;2022-12-11T07:51:25;78397.47;;;-144.77;76.77
6449;BME280;3257;52.298;13.690;2022-12-11T07:54:02;78411.38;;;-144.77;75.62
6449;BME280;3257;52.298;13.690;2022-12-11T07:56:29;78405.41;;;-144.77;76.31
6449;BME280;3257;52.298;13.690;2022-12-11T07:59:04;78419.31;;;-144.77;75.82
6449;BME280;3257;52.298;13.690;2022-12-11T08:01:33;78417.34;;;-144.77;76.10
6449;BME280;3257;52.298;13.690;2022-12-11T08:04:03;78403.44;;;-144.77;76.22
6449;BME280;3257;52.298;13.690;2022-12-11T08:06:33;78383.53;;;-144.77;76.38
6449;BME280;3257;52.298;13.690;2022-12-11T08:09:01;78421.31;;;-144.77;76.44
6449;BME280;3257;52.298;13.690;2022-12-11T08:11:28;78399.44;;;-144.77;76.36
6449;BME280;3257;52.298;13.690;2022-12-11T08:13:55;78399.44;;;-144.77;76.35
6449;BME280;3257;52.298;13.690;2022-12-11T08:16:22;78427.28;;;-144.77;76.25
6449;BME280;3257;52.298;13.690;2022-12-11T08:18:48;78413.38;;;-144.77;75.97
6449;BME280;3257;52.298;13.690;2022-12-11T08:21:17;78415.34;;;-144.77;76.09
6449;BME280;3257;52.298;13.690;2022-12-11T08:23:44;78407.41;;;-144.77;75.47
6449;BME280;3257;52.298;13.690;2022-12-11T08:26:13;78425.28;;;-144.77;75.62
6449;BME280;3257;52.298;13.690;2022-12-11T08:28:40;78423.31;;;-144.77;75.59
6449;BME280;3257;52.298;13.690;2022-12-11T08:31:08;78413.38;;;-144.77;76.01
6449;BME280;3257;52.298;13.690;2022-12-11T08:33:36;78407.41;;;-144.77;76.65
6449;BME280;3257;52.298;13.690;2022-12-11T08:36:04;78403.44;;;-144.77;76.35
6449;BME280;3257;52.298;13.690;2022-12-11T08:38:30;78405.41;;;-144.77;76.12
6449;BME280;3257;52.298;13.690;2022-12-11T08:40:57;78393.47;;;-144.77;76.88
6449;BME280;3257;52.298;13.690;2022-12-11T08:43:23;78377.56;;;-144.77;76.36
6449;BME280;3257;52.298;13.690;2022-12-11T08:45:50;78375.59;;;-144.77;75.58
6449;BME280;3257;52.298;13.690;2022-12-11T08:48:16;78377.56;;;-144.77;75.64
6449;BME280;3257;52.298;13.690;2022-12-11T08:50:43;78393.47;;;-144.77;76.35
6449;BME280;3257;52.298;13.690;2022-12-11T08:53:09;78387.53;;;-144.77;76.69
6449;BME280;3257;52.298;13.690;2022-12-11T08:55:36;78401.44;;;-144.77;76.19
6449;BME280;3257;52.298;13.690;2022-12-11T08:58:02;78379.56;;;-144.77;76.11
6449;BME280;3257;52.298;13.690;2022-12-11T09:00:29;78371.63;;;-144.77;77.16
6449;BME280;3257;52.298;13.690;2022-12-11T09:02:55;78357.69;;;-144.77;76.84
6449;BME280;3257;52.298;13.690;2022-12-11T09:05:22;78345.75;;;-144.77;75.79
6449;BME280;3257;52.298;13.690;2022-12-11T09:07:48;78343.78;;;-144.77;75.65
6449;BME280;3257;52.298;13.690;2022-12-11T09:10:15;78363.66;;;-144.77;74.86
6449;BME280;3257;52.298;13.690;2022-12-11T09:12:41;78373.59;;;-144.77;75.52
6449;BME280;3257;52.298;13.690;2022-12-11T09:15:08;78371.63;;;-144.77;75.00
6449;BME280;3257;52.298;13.690;2022-12-11T09:17:35;78377.56;;;-144.77;74.77
6449;BME280;3257;52.298;13.690;2022-12-11T09:20:02;78359.69;;;-144.77;74.82
6449;BME280;3257;52.298;13.690;2022-12-11T09:22:31;78393.47;;;-144.77;74.99
6449;BME280;3257;52.298;13.690;2022-12-11T09:24:58;78403.44;;;-144.77;74.89
6449;BME280;3257;52.298;13.690;2022-12-11T09:27:25;78401.44;;;-144.77;75.27
6449;BME280;3257;52.298;13.690;2022-12-11T09:29:51;78413.38;;;-144.77;75.30
6449;BME280;3257;52.298;13.690;2022-12-11T09:32:19;78375.59;;;-144.77;74.96
6449;BME280;3257;52.298;13.690;2022-12-11T09:34:45;78363.66;;;-144.77;75.45
6449;BME280;3257;52.298;13.690;2022-12-11T09:37:11;78355.72;;;-144.77;74.99
6449;BME280;3257;52.298;13.690;2022-12-11T09:39:38;78369.63;;;-144.77;74.43
6449;BME280;3257;52.298;13.690;2022-12-11T09:42:14;78361.66;;;-144.77;73.48
6449;BME280;3257;52.298;13.690;2022-12-11T09:44:49;78367.63;;;-144.77;74.79
6449;BME280;3257;52.298;13.690;2022-12-11T09:49:49;78359.69;;;-144.77;74.84
6449;BME280;3257;52.298;13.690;2022-12-11T09:52:17;78335.81;;;-144.77;74.53
6449;BME280;3257;52.298;13.690;2022-12-11T09:54:57;78319.91;;;-144.77;74.57
6449;BME280;3257;52.298;13.690;2022-12-11T10:05:54;78304.00;;;-144.77;73.52
6449;BME280;3257;52.298;13.690;2022-12-11T10:08:30;78323.91;;;-144.77;73.32
6449;BME280;3257;52.298;13.690;2022-12-11T10:11:30;78333.84;;;-144.77;73.41
6449;BME280;3257;52.298;13.690;2022-12-11T10:16:38;78311.97;;;-144.77;74.67
6449;BME280;3257;52.298;13.690;2022-12-11T10:19:14;78319.91;;;-144.77;74.63
6449;BME280;3257;52.298;13.690;2022-12-11T10:21:42;78331.84;;;-144.77;74.88
6449;BME280;3257;52.298;13.690;2022-12-11T10:24:20;78341.78;;;-144.77;74.37
6449;BME280;3257;52.298;13.690;2022-12-11T10:27:29;78343.78;;;-144.77;74.97
6449;BME280;3257;52.298;13.690;2022-12-11T10:30:32;78343.78;;;-144.77;75.52
6449;BME280;3257;52.298;13.690;2022-12-11T10:34:08;78349.75;;;-144.77;75.33
6449;BME280;3257;52.298;13.690;2022-12-11T10:36:09;78327.88;;;-144.77;75.16
6449;BME280;3257;52.298;13.690;2022-12-11T10:38:43;78327.88;;;-144.77;74.71
6449;BME280;3257;52.298;13.690;2022-12-11T10:41:13;78347.75;;;-144.77;74.24
6449;BME280;3257;52.298;13.690;2022-12-11T10:43:42;78313.94;;;-144.77;74.30
6449;BME280;3257;52.298;13.690;2022-12-11T10:48:52;78308.00;;;-144.77;74.88
6449;BME280;3257;52.298;13.690;2022-12-11T10:51:33;78321.91;;;-144.77;74.15
6449;BME280;3257;52.298;13.690;2022-12-11T10:54:30;78306.00;;;-144.77;74.42
6449;BME280;3257;52.298;13.690;2022-12-11T10:56:58;78311.97;;;-144.77;74.47
6449;BME280;3257;52.298;13.690;2022-12-11T11:01:58;78306.00;;;-144.77;74.74
6449;BME280;3257;52.298;13.690;2022-12-11T11:04:30;78343.78;;;-144.77;74.96
6449;BME280;3257;52.298;13.690;2022-12-11T11:07:17;78313.94;;;-144.77;74.59
6449;BME280;3257;52.298;13.690;2022-12-11T11:09:44;78321.91;;;-144.77;74.63
6449;BME280;3257;52.298;13.690;2022-12-11T11:12:24;78313.94;;;-144.77;75.12
6449;BME280;3257;52.298;13.690;2022-12-11T11:15:03;78282.16;;;-144.77;74.78
6449;BME280;3257;52.298;13.690;2022-12-11T11:17:31;78288.09;;;-144.77;74.77
6449;BME280;3257;52.298;13.690;2022-12-11T11:20:05;78288.09;;;-144.77;74.00
6449;BME280;3257;52.298;13.690;2022-12-11T11:22:44;78272.19;;;-144.77;73.14
6449;BME280;3257;52.298;13.690;2022-12-11T11:25:17;78272.19;;;-144.77;73.45
6449;BME280;3257;52.298;13.690;2022-12-11T11:27:49;78258.28;;;-144.77;73.97
6449;BME280;3257;52.298;13.690;2022-12-11T11:30:26;78276.19;;;-144.77;73.24
6449;BME280;3257;52.298;13.690;2022-12-11T11:32:56;78260.28;;;-144.77;73.89
6449;BME280;3257;52.298;13.690;2022-12-11T11:35:25;78272.19;;;-144.77;73.36
6449;BME280;3257;52.298;13.690;2022-12-11T11:38:01;78272.19;;;-144.77;73.67
6449;BME280;3257;52.298;13.690;2022-12-11T11:40:33;78276.19;;;-144.77;73.24
6449;BME280;3257;52.298;13.690;2022-12-11T11:43:26;78264.25;;;-144.77;74.42
6449;BME280;3257;52.298;13.690;2022-12-11T11:46:38;78250.34;;;-144.77;73.95
6449;BME280;3257;52.298;13.690;2022-12-11T11:48:56;78252.31;;;-144.77;73.04
6449;BME280;3257;52.298;13.690;2022-12-11T11:54:29;78246.34;;;-144.77;73.40
6449;BME280;3257;52.298;13.690;2022-12-11T11:56:58;78252.31;;;-144.77;72.87
6449;BME280;3257;52.298;13.690;2022-12-11T11:59:34;78278.16;;;-144.77;73.29
6449;BME280;3257;52.298;13.690;2022-12-11T12:02:13;78254.31;;;-144.77;74.20
6449;BME280;3257;52.298;13.690;2022-12-11T12:04:40;78264.25;;;-144.77;73.84
6449;BME280;3257;52.298;13.690;2022-12-11T12:07:28;78244.38;;;-144.77;73.64
6449;BME280;3257;52.298;13.690;2022-12-11T12:12:42;78232.44;;;-144.77;73.61
6449;BME280;3257;52.298;13.690;2022-12-11T12:24:04;78224.50;;;-144.77;72.82
6449;BME280;3257;52.298;13.690;2022-12-11T12:26:40;78220.50;;;-144.77;73.16
6449;BME280;3257;52.298;13.690;2022-12-11T12:29:17;78218.53;;;-144.77;73.96
6449;BME280;3257;52.298;13.690;2022-12-11T12:32:07;78202.63;;;-144.77;73.22
6449;BME280;3257;52.298;13.690;2022-12-11T12:35:03;78210.56;;;-144.77;72.40
6449;BME280;3257;52.298;13.690;2022-12-11T12:38:16;78230.44;;;-144.77;72.53
6449;BME280;3257;52.298;13.690;2022-12-11T12:40:56;78232.44;;;-144.77;73.04
6449;BME280;3257;52.298;13.690;2022-12-11T12:43:36;78244.38;;;-144.77;72.68
6449;BME280;3257;52.298;13.690;2022-12-11T12:46:20;78228.47;;;-144.77;73.01
6449;BME280;3257;52.298;13.690;2022-12-11T12:48:50;78242.38;;;-144.77;72.67
6449;BME280;3257;52.298;13.690;2022-12-11T12:51:17;78222.50;;;-144.77;73.26
6449;BME280;3257;52.298;13.690;2022-12-11T12:53:54;78208.59;;;-144.77;73.92
6449;BME280;3257;52.298;13.690;2022-12-11T12:56:21;78232.44;;;-144.77;73.94
6449;BME280;3257;52.298;13.690;2022-12-11T12:58:49;78240.41;;;-144.77;73.69
6449;BME280;3257;52.298;13.690;2022-12-11T13:01:26;78246.34;;;-144.77;74.17
6449;BME280;3257;52.298;13.690;2022-12-11T13:03:57;78218.53;;;-144.77;74.58
6449;BME280;3257;52.298;13.690;2022-12-11T13:08:57;78220.50;;;-144.77;73.50
6449;BME280;3257;52.298;13.690;2022-12-11T13:11:34;78248.34;;;-144.77;73.48
6449;BME280;3257;52.298;13.690;2022-12-11T13:14:05;78230.44;;;-144.77;73.57
6449;BME280;3257;52.298;13.690;2022-12-11T13:16:38;78230.44;;;-144.77;73.62
6449;BME280;3257;52.298;13.690;2022-12-11T13:21:59;78250.34;;;-144.77;73.17
6449;BME280;3257;52.298;13.690;2022-12-11T13:24:30;78248.34;;;-144.77;73.99
6449;BME280;3257;52.298;13.690;2022-12-11T13:27:09;78250.34;;;-144.77;74.29
6449;BME280;3257;52.298;13.690;2022-12-11T13:29:41;78268.22;;;-144.77;73.84
6449;BME280;3257;52.298;13.690;2022-12-11T13:34:42;78236.41;;;-144.77;74.54
6449;BME280;3257;52.298;13.690;2022-12-11T13:37:26;78254.31;;;-144.77;73.56
6449;BME280;3257;52.298;13.690;2022-12-11T13:39:55;78268.22;;;-144.77;74.19
6449;BME280;3257;52.298;13.690;2022-12-11T13:42:34;78250.34;;;-144.77;74.44
6449;BME280;3257;52.298;13.690;2022-12-11T13:45:02;78234.44;;;-144.77;74.75
6449;BME280;3257;52.298;13.690;2022-12-11T13:47:31;78268.22;;;-144.77;75.05
6449;BME280;3257;52.298;13.690;2022-12-11T13:50:34;78252.31;;;-144.77;74.24
6449;BME280;3257;52.298;13.690;2022-12-11T13:53:00;78248.34;;;-144.77;74.46
6449;BME280;3257;52.298;13.690;2022-12-11T13:55:33;78236.41;;;-144.77;74.91
6449;BME280;3257;52.298;13.690;2022-12-11T13:58:00;78230.44;;;-144.77;75.42
6449;BME280;3257;52.298;13.690;2022-12-11T14:00:29;78238.41;;;-144.77;75.10
6449;BME280;3257;52.298;13.690;2022-12-11T14:03:00;78240.41;;;-144.77;75.27
6449;BME280;3257;52.298;13.690;2022-12-11T14:05:30;78252.31;;;-144.77;75.48
6449;BME280;3257;52.298;13.690;2022-12-11T14:07:58;78250.34;;;-144.77;75.82
6449;BME280;3257;52.298;13.690;2022-12-11T14:10:30;78260.28;;;-144.77;75.83
6449;BME280;3257;52.298;13.690;2022-12-11T14:13:18;78248.34;;;-144.77;75.64
6449;BME280;3257;52.298;13.690;2022-12-11T14:15:47;78254.31;;;-144.77;75.91
6449;BME280;3257;52.298;13.690;2022-12-11T14:18:19;78260.28;;;-144.77;75.95
6449;BME280;3257;52.298;13.690;2022-12-11T14:20:56;78270.22;;;-144.77;76.28
6449;BME280;3257;52.298;13.690;2022-12-11T14:23:31;78266.25;;;-144.77;76.53
6449;BME280;3257;52.298;13.690;2022-12-11T14:26:01;78262.25;;;-144.77;76.58
6449;BME280;3257;52.298;13.690;2022-12-11T14:28:37;78260.28;;;-144.77;76.54
6449;BME280;3257;52.298;13.690;2022-12-11T14:31:06;78270.22;;;-144.77;76.84
6449;BME280;3257;52.298;13.690;2022-12-11T14:33:46;78272.19;;;-144.77;76.63
6449;BME280;3257;52.298;13.690;2022-12-11T14:36:15;78258.28;;;-144.77;76.64